Bishopsteignton, United Kingdom
Current Conditions -  °F | °C
As of 8:50 AM on Wednesday 26 Nov 2014 (Local Time) from EGTE Reporting Station
Haze Haze  
Wind Chill: 42°   Ceiling: 500
Heat Index: 45°   Visibility: 3mi
Dew Point: 43°   Wind: 5mph
Humidity: 93%   Direction: 360°N
Pressure: 29.88"   Gusts: NA
Location:  50.55°N, 3.54°W
Report Text: EGTE 260850Z 36004KT 5000 BR BKN005 07/06 Q1012
Loading
Personal Weather Stations






























Interactive Weather Map New forecast layout! Learn more

10-Day Weather Forecast

Advertisements
Track Severe Weather on mobile